Hauptseite
METAR-TAF:

METAR-TAF

Flughäfen :

Flughafen Weeze

Weeze, Deutschland

Breite: 51-36-09N, Länge: 006-08-32E, Höhe: 32 m

Beobachtung

Neuester Wetterbericht von vor 5 Stunden und 11 Minuten, um 22:50 UTC
Wind 7 kt aus Südost
Temperatur 3°C
Luftfeuchtigkeit 100%
Luftdruck 1026 hPa
Sichtweite: 7000 m

METAR: EDLV 152250Z 13007KT 7000 NSC 03/03 Q1026

Zeit: 05:01 (04:01 UTC)

Prognose

Neuester Wetterbericht von vor 11 Stunden und 1 Minuten, um 17:00 UTC
Gültige Prognose vom 15 um 18 UTC bis 16 um 18 UTC
Wind 5 kt aus Südost
Sichtweite 10 km oder mehr
keine Wolken unter 1500 m und keine Kumulonimbus oder Gewitterwolken
Zeitweise
vom 16 um 00 UTC bis 16 um 09 UTC
Sichtweite: 3000 m
feuchter Dunst
Wahrscheinlichkeit 30% :
Zeitweise
vom 16 um 01 UTC bis 16 um 09 UTC
Geschlossene Wolkendecke in der Höhe von 1000 ft

TAF: EDLV 151700Z 1518/1618 13005KT CAVOK TEMPO 1600/1609 3000 BR PROB30 TEMPO 1601/1609 OVC010

Wetterbeobachtungen und Prognosen von mehr als 4000 Flughäfen (METAR und TAF Bericht).

Die verfügbaren Stationen werden durch gelbe und rote Markierungen auf der Karte dargestellt.

Führen Sie die Maus auf sie, um den Namen der Station zu sehen.

Darauf klicken, um die Beobachtung von Wetterbeobachtungen und Prognosen zu sehen.

Um die Karte zu ändern : klicken Sie auf den grünen Tasten mit einem schwarzen Kreuz Zum Vergrößern, auf den grünen Button mit einem Gedankenstrich zu verkleinern, oder auf die grünen Pfeile für benachbarte Karten.


METAR-TAF: